.
WxDataArchive / Data Records for 2015-01-15
2015-01-14 January 2015 2015-01-16

Data Records for Thursday, 15 January 2015

Time	Temp	Chill	HIndex	Humid	Dewpt	 Wind 	HiWind	WindDir	Rain 	Barom
-----	----	-----	------	-----	-----	------	------	-------	-----	-----
00:00	7.6	7.6	7.6	81	3.0	0	0	---	0.00	30.309 
00:05	7.2	7.2	7.2	81	2.6	0	0	---	0.00	30.309 
00:10	7.0	7.0	7.0	81	2.4	0	0	---	0.00	30.309 
00:15	6.7	6.7	6.7	81	2.1	0	0	---	0.00	30.302 
00:20	6.5	6.5	6.5	81	1.9	0	0	---	0.00	30.302 
00:25	6.1	6.1	6.1	81	1.5	0	0	---	0.00	30.302 
00:30	5.8	5.8	5.8	81	1.3	0	0	---	0.00	30.293 
00:35	5.6	5.6	5.6	81	1.1	0	0	---	0.00	30.293 
00:40	5.2	5.2	5.2	80	0.4	0	0	---	0.00	30.293 
00:45	4.8	4.8	4.8	80	0.0	0	0	---	0.00	30.292 
00:50	4.7	4.7	4.7	80	-0.1	0	0	---	0.00	30.292 
00:55	4.3	4.3	4.3	80	-0.5	0	0	---	0.00	30.292 
01:00	3.9	3.9	3.9	80	-0.9	0	0	---	0.00	30.287 
01:05	3.7	3.7	3.7	80	-1.1	0	0	---	0.00	30.287 
01:10	3.4	3.4	3.4	80	-1.4	0	0	---	0.00	30.287 
01:15	3.2	3.2	3.2	80	-1.6	0	0	---	0.00	30.281 
01:20	3.0	3.0	3.0	80	-1.7	0	0	---	0.00	30.281 
01:25	3.0	3.0	3.0	80	-1.7	0	0	---	0.00	30.281 
01:30	2.8	2.8	2.8	81	-1.7	0	0	---	0.00	30.278 
01:35	2.8	2.8	2.8	81	-1.7	0	0	---	0.00	30.278 
01:40	2.8	2.8	2.8	81	-1.7	0	0	---	0.00	30.278 
01:45	2.8	2.8	2.8	82	-1.4	0	0	---	0.00	30.276 
01:50	3.2	3.2	3.2	82	-1.0	0	0	---	0.00	30.276 
01:55	3.4	3.4	3.4	82	-0.8	0	0	---	0.00	30.276 
02:00	3.7	3.7	3.7	83	-0.3	0	0	---	0.00	30.274 
02:05	4.1	4.1	4.1	83	0.1	0	0	---	0.00	30.274 
02:10	4.7	4.7	4.7	83	0.7	0	0	---	0.00	30.274 
02:15	5.0	5.0	5.0	84	1.2	0	0	---	0.00	30.267 
02:20	5.4	5.4	5.4	83	1.4	0	0	---	0.00	30.267 
02:25	5.6	5.6	5.6	83	1.6	0	0	---	0.00	30.267 
02:30	5.4	5.4	5.4	83	1.4	0	0	---	0.00	30.259 
02:35	5.0	5.0	5.0	82	0.7	0	0	---	0.00	30.259 
02:40	4.8	4.8	4.8	82	0.5	0	0	---	0.00	30.259 
02:45	4.5	4.5	4.5	82	0.2	0	0	---	0.00	30.257 
02:50	4.5	4.5	4.5	82	0.2	0	0	---	0.00	30.257 
02:55	4.3	4.3	4.3	82	0.0	0	0	---	0.00	30.257 
03:00	4.3	4.3	4.3	82	0.0	0	0	---	0.00	30.245 
03:05	4.1	4.1	4.1	82	-0.1	0	0	---	0.00	30.245 
03:10	3.7	3.7	3.7	81	-0.8	0	0	---	0.00	30.245 
03:15	3.5	3.5	3.5	81	-1.0	0	0	---	0.00	30.240 
03:20	3.2	3.2	3.2	81	-1.3	0	0	---	0.00	30.240 
03:25	3.0	3.0	3.0	81	-1.5	0	0	---	0.00	30.240 
03:30	2.6	2.6	2.6	81	-1.9	0	0	---	0.00	30.239 
03:35	2.4	2.4	2.4	81	-2.1	0	0	---	0.00	30.239 
03:40	2.2	2.2	2.2	81	-2.3	0	0	---	0.00	30.239 
03:45	2.0	2.0	2.0	81	-2.5	0	0	---	0.00	30.233 
03:50	1.8	1.8	1.8	81	-2.7	0	0	---	0.00	30.233 
03:55	1.8	1.8	1.8	81	-2.7	0	0	---	0.00	30.233 
04:00	1.8	1.8	1.8	81	-2.7	0	0	---	0.00	30.231 
04:05	2.0	2.0	2.0	81	-2.5	0	0	---	0.00	30.231 
04:10	2.6	2.6	2.6	83	-1.4	0	0	---	0.00	30.231 
04:15	3.0	3.0	3.0	82	-1.2	0	0	---	0.00	30.231 
04:20	3.4	3.4	3.4	82	-0.8	0	0	---	0.00	30.231 
04:25	3.4	3.4	3.4	82	-0.8	0	0	---	0.00	30.231 
04:30	3.5	3.5	3.5	82	-0.7	0	0	---	0.00	30.227 
04:35	3.5	3.5	3.5	82	-0.7	0	0	---	0.00	30.227 
04:40	3.5	3.5	3.5	82	-0.7	0	0	---	0.00	30.227 
04:45	3.4	3.4	3.4	82	-0.8	0	0	---	0.00	30.228 
04:50	3.4	3.4	3.4	82	-0.8	0	0	---	0.00	30.228 
04:55	3.4	3.4	3.4	82	-0.8	0	0	---	0.00	30.228 
05:00	3.2	3.2	3.2	82	-1.0	0	0	---	0.00	30.227 
05:05	3.0	3.0	3.0	82	-1.2	0	0	---	0.00	30.227 
05:10	3.0	3.0	3.0	82	-1.2	0	0	---	0.00	30.227 
05:15	2.8	2.8	2.8	82	-1.4	0	0	---	0.00	30.221 
05:20	2.8	2.8	2.8	82	-1.4	0	0	---	0.00	30.221 
05:25	2.6	2.6	2.6	81	-1.9	0	0	---	0.00	30.221 
05:30	2.4	2.4	2.4	81	-2.1	0	0	---	0.00	30.217 
05:35	2.0	2.0	2.0	81	-2.5	0	0	---	0.00	30.217 
05:40	1.7	1.7	1.7	81	-2.8	0	0	---	0.00	30.217 
05:45	1.5	1.5	1.5	81	-3.0	0	0	---	0.00	30.216 
05:50	1.3	1.3	1.3	81	-3.1	0	0	---	0.00	30.216 
05:55	1.3	1.3	1.3	81	-3.1	0	0	---	0.00	30.216 
06:00	1.1	1.1	1.1	81	-3.3	0	0	---	0.00	30.214 
06:05	0.9	0.9	0.9	81	-3.5	0	0	---	0.00	30.214 
06:10	0.7	0.7	0.7	81	-3.7	0	0	---	0.00	30.214 
06:15	0.5	0.5	0.5	81	-3.9	0	0	---	0.00	30.207 
06:20	0.3	0.3	0.3	81	-4.1	0	0	---	0.00	30.207 
06:25	0.1	0.1	0.1	80	-4.6	0	0	---	0.00	30.207 
06:30	0.0	0.0	0.0	80	-4.7	0	0	---	0.00	30.206 
06:35	-0.2	-0.2	-0.2	81	-4.6	0	0	---	0.00	30.206 
06:40	0.0	0.0	0.0	81	-4.4	0	0	---	0.00	30.206 
06:45	0.0	0.0	0.0	81	-4.4	0	0	---	0.00	30.203 
06:50	-0.2	-0.2	-0.2	80	-4.9	0	0	---	0.00	30.203 
06:55	-0.2	-0.2	-0.2	80	-4.9	0	0	---	0.00	30.203 
07:00	-0.2	-0.2	-0.2	81	-4.6	0	0	---	0.00	30.208 
07:05	-0.2	-0.2	-0.2	81	-4.6	0	0	---	0.00	30.208 
07:10	-0.2	-0.2	-0.2	81	-4.6	0	0	---	0.00	30.208 
07:15	0.0	0.0	0.0	81	-4.4	0	0	---	0.00	30.203 
07:20	0.0	0.0	0.0	81	-4.4	0	0	---	0.00	30.203 
07:25	0.0	0.0	0.0	81	-4.4	0	0	---	0.00	30.203 
07:30	-0.2	-0.2	-0.2	80	-4.9	0	0	---	0.00	30.204 
07:35	0.0	0.0	0.0	81	-4.4	0	0	---	0.00	30.204 
07:40	0.0	0.0	0.0	81	-4.4	0	0	---	0.00	30.204 
07:45	0.0	0.0	0.0	81	-4.4	0	0	---	0.00	30.203 
07:50	0.0	0.0	0.0	81	-4.4	0	0	---	0.00	30.203 
07:55	0.1	0.1	0.1	81	-4.3	0	0	---	0.00	30.203 
08:00	0.3	0.3	0.3	81	-4.1	0	0	---	0.00	30.196 
08:05	0.5	0.5	0.5	81	-3.9	0	0	---	0.00	30.196 
08:10	0.9	0.9	0.9	81	-3.5	0	0	---	0.00	30.196 
08:15	1.7	1.7	1.7	82	-2.5	0	0	---	0.00	30.191 
08:20	2.6	2.6	2.6	83	-1.4	0	0	---	0.00	30.191 
08:25	3.9	3.9	3.9	84	0.2	0	1	0	0.00	30.191 
08:30	5.2	5.2	5.2	85	1.7	0	0	---	0.00	30.184 
08:35	6.1	6.1	6.1	85	2.6	0	0	---	0.00	30.184 
08:40	7.2	7.2	7.2	85	3.7	0	1	0	0.00	30.184 
08:45	8.1	8.1	8.1	85	4.5	0	1	0	0.00	30.176 
08:50	8.6	8.6	8.6	85	5.0	0	0	---	0.00	30.176 
08:55	9.3	9.3	9.3	85	5.7	0	1	0	0.00	30.176 
09:00	9.9	9.9	9.9	85	6.3	0	1	0	0.00	30.177 
09:05	10.5	10.5	10.5	85	6.9	0	2	0	0.00	30.177 
09:10	10.9	10.9	10.9	85	7.3	0	0	---	0.00	30.177 
09:15	11.4	11.4	11.4	85	7.8	0	0	---	0.00	30.175 
09:20	11.7	11.7	11.7	85	8.1	0	1	0	0.00	30.175 
09:25	12.3	12.3	12.3	86	8.9	0	1	0	0.00	30.175 
09:30	12.8	12.8	12.8	85	9.2	0	1	0	0.00	30.175 
09:35	13.3	13.3	13.3	85	9.7	0	2	0	0.00	30.175 
09:40	13.8	13.8	13.8	85	10.1	0	1	315	0.00	30.175 
09:45	14.3	14.3	14.3	85	10.6	0	1	315	0.00	30.174 
09:50	14.6	14.6	14.6	84	10.7	0	2	315	0.00	30.174 
09:55	14.8	14.8	14.8	84	10.9	0	1	292	0.00	30.174 
10:00	15.1	15.1	15.1	83	10.9	0	2	292	0.00	30.167 
10:05	15.2	15.2	15.2	82	10.7	0	2	292	0.00	30.167 
10:10	15.4	15.4	15.4	81	10.6	1	3	248	0.00	30.167 
10:15	15.7	15.7	15.7	81	10.9	0	2	248	0.00	30.169 
10:20	16.2	16.2	16.2	80	11.1	0	1	248	0.00	30.169 
10:25	16.7	16.7	16.7	79	11.3	1	3	248	0.00	30.169 
10:30	17.2	17.2	17.2	78	11.5	0	2	248	0.00	30.171 
10:35	17.5	17.5	17.5	77	11.5	0	1	248	0.00	30.171 
10:40	17.8	17.8	17.8	77	11.8	0	3	248	0.00	30.171 
10:45	18.3	18.3	18.3	76	12.0	0	3	248	0.00	30.164 
10:50	18.8	18.8	18.8	75	12.2	1	3	248	0.00	30.164 
10:55	19.4	19.4	19.4	75	12.8	0	2	248	0.00	30.164 
11:00	20.0	20.0	20.0	73	12.8	0	1	248	0.00	30.157 
11:05	20.3	20.3	20.3	72	12.7	1	3	248	0.00	30.157 
11:10	20.3	20.3	20.3	71	12.4	0	2	248	0.00	30.157 
11:15	20.5	20.5	20.5	70	12.3	0	3	248	0.00	30.153 
11:20	20.8	20.8	20.8	70	12.6	0	2	248	0.00	30.153 
11:25	21.1	21.1	21.1	69	12.5	1	3	248	0.00	30.153 
11:30	21.6	21.6	21.6	69	13.0	0	2	248	0.00	30.151 
11:35	22.2	22.2	22.2	68	13.3	1	2	248	0.00	30.151 
11:40	22.7	22.7	22.7	66	13.1	1	3	248	0.00	30.151 
11:45	22.7	22.7	22.7	65	12.7	1	3	248	0.00	30.140 
11:50	22.9	22.9	22.9	65	12.9	1	3	248	0.00	30.140 
11:55	23.2	23.2	23.2	65	13.2	1	3	248	0.00	30.140 
12:00	23.3	23.3	23.3	65	13.3	1	3	248	0.00	30.135 
12:05	23.5	23.5	23.5	65	13.5	1	4	248	0.00	30.135 
12:10	23.6	23.6	23.6	65	13.6	0	4	248	0.00	30.135 
12:15	23.8	23.8	23.8	65	13.8	1	4	248	0.00	30.123 
12:20	24.1	24.1	24.1	65	14.1	1	5	248	0.00	30.123 
12:25	24.5	24.5	24.5	65	14.4	1	6	248	0.00	30.123 
12:30	25.4	25.4	25.4	65	15.3	1	4	248	0.00	30.111 
12:35	25.7	25.7	25.7	63	14.9	1	5	248	0.00	30.111 
12:40	26.1	26.1	26.1	63	15.3	1	5	248	0.00	30.111 
12:45	26.3	26.3	26.3	62	15.1	2	5	248	0.00	30.095 
12:50	26.4	26.4	26.4	62	15.2	1	3	248	0.00	30.095 
12:55	26.7	26.7	26.7	62	15.5	1	4	270	0.00	30.095 
13:00	26.9	26.9	26.9	62	15.6	1	4	270	0.00	30.087 
13:05	26.9	26.9	26.9	61	15.3	1	4	248	0.00	30.087 
13:10	27.0	27.0	27.0	62	15.7	1	4	248	0.00	30.087 
13:15	27.3	27.3	27.3	62	16.0	1	3	248	0.00	30.074 
13:20	27.3	27.3	27.3	61	15.7	2	5	248	0.00	30.074 
13:25	27.5	27.5	27.5	62	16.2	1	4	248	0.00	30.074 
13:30	27.8	27.8	27.8	62	16.5	0	2	248	0.00	30.065 
13:35	28.1	28.1	28.1	61	16.4	0	3	248	0.00	30.065 
13:40	28.1	28.1	28.1	60	16.0	1	3	248	0.00	30.065 
13:45	28.1	28.1	28.1	60	16.0	1	4	248	0.00	30.066 
13:50	28.2	28.2	28.2	61	16.5	0	3	248	0.00	30.066 
13:55	28.4	28.4	28.4	61	16.7	0	4	248	0.00	30.066 
14:00	28.7	28.7	28.7	61	17.0	1	4	248	0.00	30.057 
14:05	28.7	28.7	28.7	60	16.6	1	3	248	0.00	30.057 
14:10	28.8	28.8	28.8	60	16.7	1	3	248	0.00	30.057 
14:15	29.0	29.0	29.0	60	16.9	1	4	248	0.00	30.055 
14:20	29.1	29.1	29.1	60	17.0	1	3	248	0.00	30.055 
14:25	29.4	29.4	29.4	60	17.3	1	4	248	0.00	30.055 
14:30	29.7	29.7	29.7	60	17.5	1	4	225	0.00	30.054 
14:35	30.0	30.0	30.0	60	17.8	1	3	225	0.00	30.054 
14:40	30.1	30.1	30.1	59	17.5	1	4	248	0.00	30.054 
14:45	30.1	30.1	30.1	59	17.5	2	6	248	0.00	30.055 
14:50	30.3	30.3	30.3	59	17.7	1	5	248	0.00	30.055 
14:55	30.4	30.4	30.4	59	17.8	1	5	248	0.00	30.055 
15:00	30.6	30.6	30.6	59	18.0	1	4	248	0.00	30.051 
15:05	30.7	30.7	30.7	59	18.1	1	5	248	0.00	30.051 
15:10	30.7	30.7	30.7	59	18.1	1	5	248	0.00	30.051 
15:15	30.9	30.9	30.9	59	18.3	0	4	248	0.00	30.049 
15:20	30.9	30.9	30.9	59	18.3	1	5	248	0.00	30.049 
15:25	30.9	30.9	30.9	59	18.3	1	5	248	0.00	30.049 
15:30	30.7	30.7	30.7	60	18.5	1	4	248	0.00	30.045 
15:35	30.9	30.9	30.9	59	18.3	1	4	248	0.00	30.045 
15:40	31.3	31.3	31.3	60	19.0	1	4	248	0.00	30.045 
15:45	31.6	31.6	31.6	58	18.5	1	5	248	0.00	30.039 
15:50	31.8	31.8	31.8	58	18.7	1	3	248	0.00	30.039 
15:55	31.9	31.9	31.9	58	18.8	1	4	248	0.00	30.039 
16:00	31.8	31.8	31.8	58	18.7	1	4	248	0.00	30.043 
16:05	31.8	31.8	31.8	58	18.7	0	3	248	0.00	30.043 
16:10	31.6	31.6	31.6	58	18.5	1	3	248	0.00	30.043 
16:15	31.3	31.3	31.3	59	18.7	0	2	248	0.00	30.042 
16:20	31.2	31.2	31.2	59	18.6	1	3	248	0.00	30.042 
16:25	30.7	30.7	30.7	59	18.1	1	4	248	0.00	30.042 
16:30	30.6	30.6	30.6	60	18.4	0	2	248	0.00	30.038 
16:35	30.4	30.4	30.4	61	18.6	0	2	248	0.00	30.038 
16:40	30.3	30.3	30.3	61	18.5	0	3	248	0.00	30.038 
16:45	30.1	30.1	30.1	61	18.3	0	3	248	0.00	30.039 
16:50	30.1	30.1	30.1	61	18.3	1	3	248	0.00	30.039 
16:55	29.8	29.8	29.8	62	18.4	1	3	248	0.00	30.039 
17:00	29.7	29.7	29.7	62	18.3	0	3	248	0.00	30.044 
17:05	29.5	29.5	29.5	63	18.5	1	3	248	0.00	30.044 
17:10	29.4	29.4	29.4	63	18.4	1	3	248	0.00	30.044 
17:15	29.3	29.3	29.3	64	18.7	1	5	248	0.00	30.045 
17:20	29.0	29.0	29.0	64	18.4	1	5	248	0.00	30.045 
17:25	28.8	28.8	28.8	65	18.5	1	7	248	0.00	30.045 
17:30	28.7	28.7	28.7	65	18.4	1	4	248	0.00	30.044 
17:35	28.5	28.5	28.5	65	18.3	1	4	248	0.00	30.044 
17:40	28.4	28.4	28.4	66	18.5	0	3	248	0.00	30.044 
17:45	28.2	28.2	28.2	66	18.3	0	2	248	0.00	30.043 
17:50	28.2	28.2	28.2	66	18.3	0	3	248	0.00	30.043 
17:55	28.1	28.1	28.1	67	18.6	1	5	248	0.00	30.043 
18:00	27.9	27.9	27.9	67	18.4	0	2	248	0.00	30.051 
18:05	27.8	27.8	27.8	68	18.6	0	2	248	0.00	30.051 
18:10	27.8	27.8	27.8	68	18.6	1	4	248	0.00	30.051 
18:15	27.8	27.8	27.8	68	18.6	0	2	248	0.00	30.047 
18:20	27.8	27.8	27.8	68	18.6	0	3	248	0.00	30.047 
18:25	27.8	27.8	27.8	69	19.0	1	4	248	0.00	30.047 
18:30	27.6	27.6	27.6	69	18.8	0	3	248	0.00	30.048 
18:35	27.6	27.6	27.6	69	18.8	0	3	248	0.00	30.048 
18:40	27.5	27.5	27.5	69	18.7	0	3	248	0.00	30.048 
18:45	27.5	27.5	27.5	70	19.0	0	3	248	0.00	30.046 
18:50	27.5	27.5	27.5	70	19.0	0	2	248	0.00	30.046 
18:55	27.5	27.5	27.5	70	19.0	1	4	248	0.00	30.046 
19:00	27.5	27.5	27.5	70	19.0	1	6	248	0.00	30.046 
19:05	27.5	27.5	27.5	71	19.4	0	3	248	0.00	30.046 
19:10	27.5	27.5	27.5	71	19.4	1	4	248	0.00	30.046 
19:15	27.3	27.3	27.3	71	19.2	0	2	248	0.00	30.045 
19:20	27.2	27.2	27.2	71	19.1	1	3	248	0.00	30.045 
19:25	27.2	27.2	27.2	72	19.4	0	3	248	0.00	30.045 
19:30	27.0	27.0	27.0	72	19.2	0	2	248	0.00	30.046 
19:35	27.0	27.0	27.0	72	19.2	0	3	248	0.00	30.046 
19:40	27.0	27.0	27.0	73	19.5	1	3	248	0.00	30.046 
19:45	27.0	27.0	27.0	73	19.5	1	3	248	0.00	30.049 
19:50	27.0	27.0	27.0	73	19.5	1	3	248	0.00	30.049 
19:55	27.0	27.0	27.0	73	19.5	1	4	248	0.00	30.049 
20:00	27.0	27.0	27.0	73	19.5	1	5	248	0.00	30.046 
20:05	27.2	27.2	27.2	73	19.7	1	3	248	0.00	30.046 
20:10	27.2	27.2	27.2	73	19.7	0	3	248	0.00	30.046 
20:15	27.2	27.2	27.2	73	19.7	2	5	248	0.00	30.033 
20:20	27.2	27.2	27.2	73	19.7	1	5	248	0.00	30.033 
20:25	27.2	27.2	27.2	73	19.7	1	4	270	0.00	30.033 
20:30	27.3	27.3	27.3	73	19.8	2	5	248	0.00	30.029 
20:35	27.3	27.3	27.3	73	19.8	2	5	248	0.00	30.029 
20:40	27.5	27.5	27.5	73	20.0	2	5	248	0.00	30.029 
20:45	27.5	27.5	27.5	73	20.0	1	3	248	0.00	30.019 
20:50	27.5	27.5	27.5	73	20.0	2	6	248	0.00	30.019 
20:55	27.5	27.5	27.5	73	20.0	1	5	248	0.00	30.019 
21:00	27.5	27.5	27.5	73	20.0	1	6	248	0.00	30.021 
21:05	27.5	27.5	27.5	73	20.0	1	6	248	0.00	30.021 
21:10	27.3	27.3	27.3	73	19.8	1	4	270	0.00	30.021 
21:15	27.3	27.3	27.3	74	20.1	1	5	270	0.00	30.018 
21:20	27.5	27.5	27.5	74	20.3	1	4	248	0.00	30.018 
21:25	27.5	27.5	27.5	74	20.3	1	4	248	0.00	30.018 
21:30	27.5	27.5	27.5	74	20.3	2	6	248	0.00	30.013 
21:35	27.5	27.5	27.5	74	20.3	2	7	248	0.00	30.013 
21:40	27.5	27.5	27.5	74	20.3	2	6	248	0.00	30.013 
21:45	27.5	27.5	27.5	74	20.3	2	5	248	0.00	30.014 
21:50	27.5	27.5	27.5	74	20.3	1	5	248	0.00	30.014 
21:55	27.5	27.5	27.5	74	20.3	2	7	248	0.00	30.014 
22:00	27.5	27.5	27.5	74	20.3	2	6	248	0.00	30.013 
22:05	27.5	27.5	27.5	74	20.3	1	5	248	0.00	30.013 
22:10	27.6	27.6	27.6	75	20.7	2	6	248	0.00	30.013 
22:15	27.6	27.6	27.6	75	20.7	2	6	248	0.00	30.009 
22:20	27.5	27.5	27.5	75	20.6	1	3	248	0.00	30.009 
22:25	27.6	27.6	27.6	75	20.7	2	5	248	0.00	30.009 
22:30	27.6	27.6	27.6	75	20.7	1	4	248	0.00	30.009 
22:35	27.6	27.6	27.6	75	20.7	1	3	248	0.00	30.009 
22:40	27.6	27.6	27.6	75	20.7	1	5	248	0.00	30.009 
22:45	27.6	27.6	27.6	76	21.0	1	5	248	0.00	30.015 
22:50	27.6	27.6	27.6	76	21.0	1	4	248	0.00	30.015 
22:55	27.6	27.6	27.6	76	21.0	1	3	248	0.00	30.015 
23:00	27.8	27.8	27.8	76	21.2	2	4	248	0.00	30.010 
23:05	27.9	27.9	27.9	76	21.3	1	5	248	0.00	30.010 
23:10	27.9	27.9	27.9	76	21.3	1	4	248	0.00	30.010 
23:15	28.1	28.1	28.1	77	21.8	2	6	248	0.00	30.006 
23:20	28.2	28.2	28.2	76	21.6	2	5	248	0.00	30.006 
23:25	28.2	28.2	28.2	76	21.6	1	4	270	0.00	30.006 
23:30	28.1	28.1	28.1	76	21.5	1	3	248	0.00	30.005 
23:35	28.1	28.1	28.1	77	21.8	2	5	248	0.00	30.005 
23:40	27.9	27.9	27.9	76	21.3	1	4	248	0.00	30.005 
23:45	27.8	27.8	27.8	77	21.5	1	4	248	0.00	30.016 
23:50	27.6	27.6	27.6	77	21.4	1	4	248	0.00	30.016 
23:55	27.5	27.5	27.5	77	21.3	1	3	248	0.00	30.016 

CoCoRaHS
IN-AL-39
A2 Web Hosting
Creative Commons License
GoDaddy
search engine by freefind advanced

loaded 2018-11-16 23:52:40 • last modified 2010-11-18 10:43:29
Privacy PolicyDisclaimer
• wx.awcolley.com is powered by PmWiki v.2002016 •
• all content (unless otherwise noted) © 2018 A W Colley